sensor_id;sensor_type;location;lat;lon;timestamp;pressure;altitude;pressure_sealevel;temperature;humidity
34205;BME280;20471;49.680;20.074;2023-07-09T00:41:26;97717.29;;;12.59;64.30
34205;BME280;20471;49.680;20.074;2023-07-09T00:43:54;97720.50;;;12.48;64.44
34205;BME280;20471;49.680;20.074;2023-07-09T00:50:58;97717.55;;;12.33;64.70
34205;BME280;20471;49.680;20.074;2023-07-09T00:53:29;97716.69;;;12.26;64.85
34205;BME280;20471;49.680;20.074;2023-07-09T00:56:06;97713.46;;;12.21;65.10
34205;BME280;20471;49.680;20.074;2023-07-09T00:58:36;97716.36;;;12.17;65.18
34205;BME280;20471;49.680;20.074;2023-07-09T01:01:09;97715.16;;;12.14;65.19
34205;BME280;20471;49.680;20.074;2023-07-09T01:03:51;97714.25;;;12.10;65.32
34205;BME280;20471;49.680;20.074;2023-07-09T01:06:27;97713.19;;;12.06;65.34
34205;BME280;20471;49.680;20.074;2023-07-09T01:08:59;97714.02;;;12.02;65.25
34205;BME280;20471;49.680;20.074;2023-07-09T01:11:28;97715.55;;;11.96;65.35
34205;BME280;20471;49.680;20.074;2023-07-09T01:13:58;97720.86;;;11.93;65.43
34205;BME280;20471;49.680;20.074;2023-07-09T01:16:30;97722.77;;;11.90;65.53
34205;BME280;20471;49.680;20.074;2023-07-09T01:18:59;97720.69;;;11.87;65.62
34205;BME280;20471;49.680;20.074;2023-07-09T01:21:27;97718.41;;;11.83;65.66
34205;BME280;20471;49.680;20.074;2023-07-09T01:23:55;97718.80;;;11.79;65.63
34205;BME280;20471;49.680;20.074;2023-07-09T01:26:26;97717.85;;;11.74;65.84
34205;BME280;20471;49.680;20.074;2023-07-09T01:28:55;97716.38;;;11.70;65.85
34205;BME280;20471;49.680;20.074;2023-07-09T01:31:24;97712.05;;;11.69;65.92
34205;BME280;20471;49.680;20.074;2023-07-09T01:33:52;97706.89;;;11.67;66.00
34205;BME280;20471;49.680;20.074;2023-07-09T01:36:21;97708.48;;;11.65;66.14
34205;BME280;20471;49.680;20.074;2023-07-09T01:38:51;97707.80;;;11.62;66.19
34205;BME280;20471;49.680;20.074;2023-07-09T01:41:20;97708.03;;;11.58;66.33
34205;BME280;20471;49.680;20.074;2023-07-09T01:43:48;97707.48;;;11.50;66.37
34205;BME280;20471;49.680;20.074;2023-07-09T01:46:16;97709.21;;;11.45;66.60
34205;BME280;20471;49.680;20.074;2023-07-09T01:48:44;97710.13;;;11.44;66.74
34205;BME280;20471;49.680;20.074;2023-07-09T01:51:15;97711.51;;;11.43;66.69
34205;BME280;20471;49.680;20.074;2023-07-09T01:53:44;97710.45;;;11.40;66.84
34205;BME280;20471;49.680;20.074;2023-07-09T01:56:12;97707.59;;;11.36;66.99
34205;BME280;20471;49.680;20.074;2023-07-09T01:58:39;97702.78;;;11.34;66.99
34205;BME280;20471;49.680;20.074;2023-07-09T02:01:08;97704.52;;;11.33;66.96
34205;BME280;20471;49.680;20.074;2023-07-09T02:03:36;97701.83;;;11.31;67.00
34205;BME280;20471;49.680;20.074;2023-07-09T02:06:04;97704.27;;;11.29;67.04
34205;BME280;20471;49.680;20.074;2023-07-09T02:08:35;97706.71;;;11.26;67.18
34205;BME280;20471;49.680;20.074;2023-07-09T02:11:03;97709.02;;;11.22;67.24
34205;BME280;20471;49.680;20.074;2023-07-09T02:13:31;97710.59;;;11.18;67.35
34205;BME280;20471;49.680;20.074;2023-07-09T02:15:59;97709.34;;;11.15;67.33
34205;BME280;20471;49.680;20.074;2023-07-09T02:18:28;97709.37;;;11.13;67.41
34205;BME280;20471;49.680;20.074;2023-07-09T02:20:56;97710.80;;;11.10;67.37
34205;BME280;20471;49.680;20.074;2023-07-09T02:23:27;97713.92;;;11.07;67.41
34205;BME280;20471;49.680;20.074;2023-07-09T02:25:55;97710.13;;;11.05;67.48
34205;BME280;20471;49.680;20.074;2023-07-09T02:28:23;97709.54;;;11.03;67.62
34205;BME280;20471;49.680;20.074;2023-07-09T02:30:51;97710.70;;;11.02;67.65
34205;BME280;20471;49.680;20.074;2023-07-09T02:33:19;97710.11;;;10.98;67.63
34205;BME280;20471;49.680;20.074;2023-07-09T02:35:47;97718.85;;;11.00;67.72
34205;BME280;20471;49.680;20.074;2023-07-09T02:38:14;97718.57;;;10.98;67.73
34205;BME280;20471;49.680;20.074;2023-07-09T02:40:42;97718.06;;;10.95;67.82
34205;BME280;20471;49.680;20.074;2023-07-09T02:43:10;97722.75;;;10.92;67.95
34205;BME280;20471;49.680;20.074;2023-07-09T02:45:37;97731.67;;;10.90;68.04
34205;BME280;20471;49.680;20.074;2023-07-09T02:48:05;97734.65;;;10.88;68.11
34205;BME280;20471;49.680;20.074;2023-07-09T02:50:33;97731.92;;;10.86;68.28
34205;BME280;20471;49.680;20.074;2023-07-09T02:53:00;97733.21;;;10.84;68.30
34205;BME280;20471;49.680;20.074;2023-07-09T02:55:28;97736.94;;;10.82;68.34
34205;BME280;20471;49.680;20.074;2023-07-09T02:57:56;97734.70;;;10.81;68.40
34205;BME280;20471;49.680;20.074;2023-07-09T03:00:24;97737.72;;;10.80;68.58
34205;BME280;20471;49.680;20.074;2023-07-09T03:02:51;97742.11;;;10.77;68.61
34205;BME280;20471;49.680;20.074;2023-07-09T03:05:20;97743.69;;;10.74;68.75
34205;BME280;20471;49.680;20.074;2023-07-09T03:07:47;97743.82;;;10.72;68.82
34205;BME280;20471;49.680;20.074;2023-07-09T03:10:16;97745.19;;;10.71;68.87
34205;BME280;20471;49.680;20.074;2023-07-09T03:12:43;97747.14;;;10.70;68.96
34205;BME280;20471;49.680;20.074;2023-07-09T03:15:11;97749.71;;;10.70;69.05
34205;BME280;20471;49.680;20.074;2023-07-09T03:17:39;97751.66;;;10.70;69.07
34205;BME280;20471;49.680;20.074;2023-07-09T03:20:07;97748.70;;;10.69;69.08
34205;BME280;20471;49.680;20.074;2023-07-09T03:22:35;97749.95;;;10.69;69.14
34205;BME280;20471;49.680;20.074;2023-07-09T03:25:03;97748.26;;;10.70;69.20
34205;BME280;20471;49.680;20.074;2023-07-09T03:27:30;97746.84;;;10.70;69.34
34205;BME280;20471;49.680;20.074;2023-07-09T03:29:58;97750.41;;;10.69;69.59
34205;BME280;20471;49.680;20.074;2023-07-09T03:32:27;97753.61;;;10.68;69.61
34205;BME280;20471;49.680;20.074;2023-07-09T03:34:54;97751.52;;;10.67;69.80
34205;BME280;20471;49.680;20.074;2023-07-09T03:37:22;97749.02;;;10.67;69.83
34205;BME280;20471;49.680;20.074;2023-07-09T03:39:50;97751.77;;;10.68;69.89
34205;BME280;20471;49.680;20.074;2023-07-09T03:42:17;97748.28;;;10.67;69.99
34205;BME280;20471;49.680;20.074;2023-07-09T03:44:45;97750.69;;;10.67;70.05
34205;BME280;20471;49.680;20.074;2023-07-09T03:47:13;97750.56;;;10.67;70.15
34205;BME280;20471;49.680;20.074;2023-07-09T03:49:41;97750.65;;;10.68;70.33
34205;BME280;20471;49.680;20.074;2023-07-09T03:52:09;97748.84;;;10.71;70.45
34205;BME280;20471;49.680;20.074;2023-07-09T03:54:37;97747.23;;;10.74;70.48
34205;BME280;20471;49.680;20.074;2023-07-09T03:57:04;97747.52;;;10.76;70.52
34205;BME280;20471;49.680;20.074;2023-07-09T03:59:32;97747.83;;;10.80;70.57
34205;BME280;20471;49.680;20.074;2023-07-09T04:02:00;97748.33;;;10.83;70.59
34205;BME280;20471;49.680;20.074;2023-07-09T04:04:29;97747.34;;;10.86;70.67
34205;BME280;20471;49.680;20.074;2023-07-09T04:06:57;97749.20;;;10.90;70.81
34205;BME280;20471;49.680;20.074;2023-07-09T04:09:24;97749.59;;;10.93;70.84
34205;BME280;20471;49.680;20.074;2023-07-09T04:11:52;97748.31;;;10.96;70.87
34205;BME280;20471;49.680;20.074;2023-07-09T04:14:20;97750.19;;;11.01;70.79
34205;BME280;20471;49.680;20.074;2023-07-09T04:16:47;97742.09;;;11.05;71.05
34205;BME280;20471;49.680;20.074;2023-07-09T04:19:15;97746.34;;;11.09;71.19
34205;BME280;20471;49.680;20.074;2023-07-09T04:21:43;97744.58;;;11.14;71.23
34205;BME280;20471;49.680;20.074;2023-07-09T04:24:10;97744.68;;;11.19;71.22
34205;BME280;20471;49.680;20.074;2023-07-09T04:26:38;97745.80;;;11.25;71.19
34205;BME280;20471;49.680;20.074;2023-07-09T04:29:06;97747.77;;;11.32;71.11
34205;BME280;20471;49.680;20.074;2023-07-09T04:31:34;97745.14;;;11.40;71.10
34205;BME280;20471;49.680;20.074;2023-07-09T04:34:01;97742.27;;;11.46;71.11
34205;BME280;20471;49.680;20.074;2023-07-09T04:36:30;97740.98;;;11.54;71.13
34205;BME280;20471;49.680;20.074;2023-07-09T04:38:57;97743.00;;;11.62;71.20
34205;BME280;20471;49.680;20.074;2023-07-09T04:41:25;97741.42;;;11.69;71.30
34205;BME280;20471;49.680;20.074;2023-07-09T04:43:53;97745.83;;;11.76;71.27
34205;BME280;20471;49.680;20.074;2023-07-09T04:46:21;97746.66;;;11.83;71.21
34205;BME280;20471;49.680;20.074;2023-07-09T04:48:48;97744.61;;;11.90;71.16
34205;BME280;20471;49.680;20.074;2023-07-09T04:51:16;97738.05;;;11.98;71.24
34205;BME280;20471;49.680;20.074;2023-07-09T04:53:44;97741.67;;;12.04;71.23
34205;BME280;20471;49.680;20.074;2023-07-09T04:56:11;97744.06;;;12.10;71.38
34205;BME280;20471;49.680;20.074;2023-07-09T04:58:39;97743.46;;;12.17;71.41
34205;BME280;20471;49.680;20.074;2023-07-09T05:01:07;97739.81;;;12.25;71.16
34205;BME280;20471;49.680;20.074;2023-07-09T05:03:34;97739.90;;;12.35;71.27
34205;BME280;20471;49.680;20.074;2023-07-09T05:06:03;97739.61;;;12.43;71.08
34205;BME280;20471;49.680;20.074;2023-07-09T05:08:31;97739.16;;;12.52;70.96
34205;BME280;20471;49.680;20.074;2023-07-09T05:10:59;97742.18;;;12.61;70.75
34205;BME280;20471;49.680;20.074;2023-07-09T05:13:27;97742.89;;;12.71;70.92
34205;BME280;20471;49.680;20.074;2023-07-09T05:15:55;97742.84;;;12.80;71.24
34205;BME280;20471;49.680;20.074;2023-07-09T05:18:22;97745.05;;;12.89;71.32
34205;BME280;20471;49.680;20.074;2023-07-09T05:20:50;97747.54;;;12.98;71.42
34205;BME280;20471;49.680;20.074;2023-07-09T05:23:18;97750.09;;;13.08;71.56
34205;BME280;20471;49.680;20.074;2023-07-09T05:25:45;97749.42;;;13.17;71.52
34205;BME280;20471;49.680;20.074;2023-07-09T05:28:13;97743.77;;;13.26;71.45
34205;BME280;20471;49.680;20.074;2023-07-09T05:30:42;97740.77;;;13.38;71.09
34205;BME280;20471;49.680;20.074;2023-07-09T05:33:10;97739.77;;;13.47;71.10
34205;BME280;20471;49.680;20.074;2023-07-09T05:35:37;97738.73;;;13.56;71.17
34205;BME280;20471;49.680;20.074;2023-07-09T05:38:05;97739.84;;;13.67;71.07
34205;BME280;20471;49.680;20.074;2023-07-09T05:40:33;97740.16;;;13.77;70.97
34205;BME280;20471;49.680;20.074;2023-07-09T05:43:00;97736.67;;;13.87;70.86
34205;BME280;20471;49.680;20.074;2023-07-09T05:45:28;97738.16;;;13.98;70.75
34205;BME280;20471;49.680;20.074;2023-07-09T05:47:57;97737.04;;;14.10;70.81
34205;BME280;20471;49.680;20.074;2023-07-09T05:50:26;97734.87;;;14.21;70.74
34205;BME280;20471;49.680;20.074;2023-07-09T05:52:54;97731.78;;;14.32;70.58
34205;BME280;20471;49.680;20.074;2023-07-09T05:55:22;97733.76;;;14.43;70.21
34205;BME280;20471;49.680;20.074;2023-07-09T05:57:54;97731.95;;;14.54;70.13
34205;BME280;20471;49.680;20.074;2023-07-09T06:00:22;97729.67;;;14.65;69.98
34205;BME280;20471;49.680;20.074;2023-07-09T06:02:51;97729.93;;;14.76;69.75
34205;BME280;20471;49.680;20.074;2023-07-09T06:05:19;97727.39;;;14.88;69.67
34205;BME280;20471;49.680;20.074;2023-07-09T06:07:47;97733.10;;;15.00;69.58
34205;BME280;20471;49.680;20.074;2023-07-09T06:10:15;97731.37;;;15.10;68.91
34205;BME280;20471;49.680;20.074;2023-07-09T06:12:42;97731.23;;;15.22;68.60
34205;BME280;20471;49.680;20.074;2023-07-09T06:15:10;97727.56;;;15.34;68.51
34205;BME280;20471;49.680;20.074;2023-07-09T06:17:38;97726.79;;;15.46;68.35
34205;BME280;20471;49.680;20.074;2023-07-09T06:20:07;97728.20;;;15.58;68.33
34205;BME280;20471;49.680;20.074;2023-07-09T06:22:35;97723.88;;;15.71;68.32
34205;BME280;20471;49.680;20.074;2023-07-09T06:25:02;97724.19;;;15.84;68.32
34205;BME280;20471;49.680;20.074;2023-07-09T06:27:30;97728.20;;;16.00;68.45
34205;BME280;20471;49.680;20.074;2023-07-09T06:29:58;97724.98;;;16.17;68.41
34205;BME280;20471;49.680;20.074;2023-07-09T06:32:26;97722.08;;;16.31;68.08
34205;BME280;20471;49.680;20.074;2023-07-09T06:34:54;97721.08;;;16.43;67.71
34205;BME280;20471;49.680;20.074;2023-07-09T06:37:21;97720.00;;;16.57;67.60
34205;BME280;20471;49.680;20.074;2023-07-09T06:39:49;97717.63;;;16.73;66.93
34205;BME280;20471;49.680;20.074;2023-07-09T06:42:17;97719.73;;;16.88;66.68
34205;BME280;20471;49.680;20.074;2023-07-09T06:44:44;97718.00;;;17.05;66.55
34205;BME280;20471;49.680;20.074;2023-07-09T06:47:12;97718.77;;;17.19;66.30
34205;BME280;20471;49.680;20.074;2023-07-09T06:49:40;97716.30;;;17.34;66.19
34205;BME280;20471;49.680;20.074;2023-07-09T06:52:07;97716.26;;;17.48;66.02
34205;BME280;20471;49.680;20.074;2023-07-09T06:54:35;97714.34;;;17.63;66.11
34205;BME280;20471;49.680;20.074;2023-07-09T06:57:36;97702.97;;;17.76;65.51
34205;BME280;20471;49.680;20.074;2023-07-09T07:00:12;97704.11;;;17.93;65.38
34205;BME280;20471;49.680;20.074;2023-07-09T07:02:40;97704.53;;;18.07;64.91
34205;BME280;20471;49.680;20.074;2023-07-09T07:05:08;97696.85;;;18.22;64.78
34205;BME280;20471;49.680;20.074;2023-07-09T07:07:35;97691.60;;;18.38;64.50
34205;BME280;20471;49.680;20.074;2023-07-09T07:10:12;97689.39;;;18.54;63.97
34205;BME280;20471;49.680;20.074;2023-07-09T07:12:43;97688.79;;;18.70;63.55
34205;BME280;20471;49.680;20.074;2023-07-09T07:15:13;97681.83;;;18.84;63.62
34205;BME280;20471;49.680;20.074;2023-07-09T07:18:16;97688.38;;;19.02;63.57
34205;BME280;20471;49.680;20.074;2023-07-09T07:20:44;97689.08;;;19.19;63.95
34205;BME280;20471;49.680;20.074;2023-07-09T07:23:12;97685.45;;;19.37;63.52
34205;BME280;20471;49.680;20.074;2023-07-09T07:25:41;97682.28;;;19.56;63.30
34205;BME280;20471;49.680;20.074;2023-07-09T07:28:09;97677.33;;;19.71;63.34
34205;BME280;20471;49.680;20.074;2023-07-09T07:30:42;97680.13;;;19.89;63.47
34205;BME280;20471;49.680;20.074;2023-07-09T07:33:15;97676.20;;;20.00;62.90
34205;BME280;20471;49.680;20.074;2023-07-09T07:35:43;97677.51;;;20.20;62.56
34205;BME280;20471;49.680;20.074;2023-07-09T07:38:11;97675.30;;;20.34;62.17
34205;BME280;20471;49.680;20.074;2023-07-09T07:40:38;97675.97;;;20.48;61.13
34205;BME280;20471;49.680;20.074;2023-07-09T07:43:06;97676.40;;;20.63;60.83
34205;BME280;20471;49.680;20.074;2023-07-09T07:45:34;97673.71;;;20.78;60.43
34205;BME280;20471;49.680;20.074;2023-07-09T07:48:01;97670.18;;;20.93;59.90
34205;BME280;20471;49.680;20.074;2023-07-09T07:50:29;97672.47;;;21.10;59.84
34205;BME280;20471;49.680;20.074;2023-07-09T07:52:57;97672.36;;;21.29;59.03
34205;BME280;20471;49.680;20.074;2023-07-09T07:55:25;97668.18;;;21.45;58.37
34205;BME280;20471;49.680;20.074;2023-07-09T07:57:52;97669.55;;;21.65;58.34
34205;BME280;20471;49.680;20.074;2023-07-09T08:00:20;97670.39;;;21.99;58.46
34205;BME280;20471;49.680;20.074;2023-07-09T08:02:48;97664.94;;;22.40;58.28
34205;BME280;20471;49.680;20.074;2023-07-09T08:05:16;97666.27;;;22.90;57.12
34205;BME280;20471;49.680;20.074;2023-07-09T08:07:44;97665.73;;;23.46;56.03
34205;BME280;20471;49.680;20.074;2023-07-09T08:10:12;97664.70;;;24.04;55.08
34205;BME280;20471;49.680;20.074;2023-07-09T08:12:40;97663.73;;;24.62;54.34
34205;BME280;20471;49.680;20.074;2023-07-09T08:15:08;97662.44;;;25.18;53.88
34205;BME280;20471;49.680;20.074;2023-07-09T08:17:35;97665.30;;;25.71;52.58
34205;BME280;20471;49.680;20.074;2023-07-09T08:20:03;97662.38;;;26.23;51.84
34205;BME280;20471;49.680;20.074;2023-07-09T08:22:31;97660.59;;;26.66;50.15
34205;BME280;20471;49.680;20.074;2023-07-09T08:24:59;97658.23;;;27.04;48.49
34205;BME280;20471;49.680;20.074;2023-07-09T08:27:27;97652.74;;;27.42;47.97
34205;BME280;20471;49.680;20.074;2023-07-09T08:29:55;97651.81;;;27.82;47.22
34205;BME280;20471;49.680;20.074;2023-07-09T08:32:22;97651.92;;;28.16;46.35
34205;BME280;20471;49.680;20.074;2023-07-09T08:34:50;97649.52;;;28.41;45.31
34205;BME280;20471;49.680;20.074;2023-07-09T08:37:18;97646.85;;;28.72;44.94
34205;BME280;20471;49.680;20.074;2023-07-09T08:39:46;97648.50;;;29.04;44.79
34205;BME280;20471;49.680;20.074;2023-07-09T08:42:16;97653.03;;;29.32;44.00
34205;BME280;20471;49.680;20.074;2023-07-09T08:56:19;97644.19;;;30.92;38.75
34205;BME280;20471;49.680;20.074;2023-07-09T08:58:48;97643.77;;;31.97;35.29
34205;BME280;20471;49.680;20.074;2023-07-09T09:01:26;97645.23;;;32.20;34.85
34205;BME280;20471;49.680;20.074;2023-07-09T09:04:07;97644.70;;;32.46;33.99
34205;BME280;20471;49.680;20.074;2023-07-09T09:06:41;97643.37;;;32.66;33.72
34205;BME280;20471;49.680;20.074;2023-07-09T09:09:31;97645.65;;;32.81;33.25
34205;BME280;20471;49.680;20.074;2023-07-09T09:12:26;97644.31;;;32.89;32.88
34205;BME280;20471;49.680;20.074;2023-07-09T09:15:03;97644.45;;;33.14;32.86
34205;BME280;20471;49.680;20.074;2023-07-09T09:17:34;97646.47;;;33.38;31.93
34205;BME280;20471;49.680;20.074;2023-07-09T09:20:05;97649.33;;;33.61;31.58
34205;BME280;20471;49.680;20.074;2023-07-09T09:25:21;97642.23;;;34.04;30.57
34205;BME280;20471;49.680;20.074;2023-07-09T09:27:49;97644.77;;;34.26;30.18
34205;BME280;20471;49.680;20.074;2023-07-09T09:30:19;97645.02;;;34.36;30.12
34205;BME280;20471;49.680;20.074;2023-07-09T09:32:53;97648.70;;;34.21;29.88
34205;BME280;20471;49.680;20.074;2023-07-09T09:35:32;97647.34;;;34.29;29.68
34205;BME280;20471;49.680;20.074;2023-07-09T09:37:59;97642.23;;;34.38;29.62
34205;BME280;20471;49.680;20.074;2023-07-09T09:40:32;97646.88;;;34.43;28.75
34205;BME280;20471;49.680;20.074;2023-07-09T09:42:59;97643.51;;;34.42;28.78
34205;BME280;20471;49.680;20.074;2023-07-09T09:45:32;97644.77;;;34.47;28.68
34205;BME280;20471;49.680;20.074;2023-07-09T09:48:01;97644.41;;;34.65;28.68
34205;BME280;20471;49.680;20.074;2023-07-09T09:50:35;97640.81;;;34.72;27.78
34205;BME280;20471;49.680;20.074;2023-07-09T09:53:02;97642.70;;;34.68;27.64
34205;BME280;20471;49.680;20.074;2023-07-09T09:55:33;97646.20;;;34.76;27.56
34205;BME280;20471;49.680;20.074;2023-07-09T09:58:01;97645.73;;;34.88;27.28
34205;BME280;20471;49.680;20.074;2023-07-09T10:00:30;97641.71;;;34.92;27.10
34205;BME280;20471;49.680;20.074;2023-07-09T10:03:00;97641.35;;;34.77;27.09
34205;BME280;20471;49.680;20.074;2023-07-09T10:05:44;97644.79;;;34.64;26.19
34205;BME280;20471;49.680;20.074;2023-07-09T10:11:12;97644.10;;;34.31;25.38
34205;BME280;20471;49.680;20.074;2023-07-09T10:13:43;97640.29;;;33.83;25.53
34205;BME280;20471;49.680;20.074;2023-07-09T10:16:26;97638.80;;;33.35;26.29
34205;BME280;20471;49.680;20.074;2023-07-09T10:19:11;97639.90;;;32.91;26.21
34205;BME280;20471;49.680;20.074;2023-07-09T10:21:59;97635.38;;;32.84;26.46
34205;BME280;20471;49.680;20.074;2023-07-09T10:25:01;97629.64;;;33.00;26.53
34205;BME280;20471;49.680;20.074;2023-07-09T10:27:36;97625.60;;;33.21;26.54
34205;BME280;20471;49.680;20.074;2023-07-09T10:30:41;97623.23;;;33.38;26.79
34205;BME280;20471;49.680;20.074;2023-07-09T10:33:14;97624.61;;;33.50;26.59
34205;BME280;20471;49.680;20.074;2023-07-09T10:41:13;97616.30;;;33.72;26.38
34205;BME280;20471;49.680;20.074;2023-07-09T10:43:54;97608.66;;;33.65;26.97
34205;BME280;20471;49.680;20.074;2023-07-09T10:46:27;97605.91;;;33.72;26.88
34205;BME280;20471;49.680;20.074;2023-07-09T10:48:55;97610.52;;;33.77;25.87
34205;BME280;20471;49.680;20.074;2023-07-09T10:51:27;97614.98;;;33.93;26.12
34205;BME280;20471;49.680;20.074;2023-07-09T10:54:07;97618.85;;;34.06;25.74
34205;BME280;20471;49.680;20.074;2023-07-09T10:56:38;97619.62;;;33.99;25.28
34205;BME280;20471;49.680;20.074;2023-07-09T10:59:29;97613.38;;;33.96;25.16
34205;BME280;20471;49.680;20.074;2023-07-09T11:02:19;97607.30;;;34.11;25.52
34205;BME280;20471;49.680;20.074;2023-07-09T11:04:51;97609.02;;;34.09;25.37
34205;BME280;20471;49.680;20.074;2023-07-09T11:07:25;97607.84;;;33.89;25.58
34205;BME280;20471;49.680;20.074;2023-07-09T11:09:54;97602.02;;;33.76;25.26
34205;BME280;20471;49.680;20.074;2023-07-09T11:15:00;97603.29;;;34.11;24.32
34205;BME280;20471;49.680;20.074;2023-07-09T11:17:29;97597.35;;;34.17;25.32
34205;BME280;20471;49.680;20.074;2023-07-09T11:19:59;97596.91;;;34.05;25.86
34205;BME280;20471;49.680;20.074;2023-07-09T11:22:35;97598.12;;;34.00;25.62
34205;BME280;20471;49.680;20.074;2023-07-09T11:25:14;97600.02;;;33.93;25.41
34205;BME280;20471;49.680;20.074;2023-07-09T11:27:49;97599.23;;;34.03;25.25
34205;BME280;20471;49.680;20.074;2023-07-09T11:30:26;97600.37;;;34.16;24.93
34205;BME280;20471;49.680;20.074;2023-07-09T11:33:15;97599.16;;;34.27;24.69
34205;BME280;20471;49.680;20.074;2023-07-09T11:35:50;97600.14;;;33.98;25.22
34205;BME280;20471;49.680;20.074;2023-07-09T11:38:20;97596.12;;;33.60;26.11
34205;BME280;20471;49.680;20.074;2023-07-09T11:40:53;97600.15;;;33.44;25.75
34205;BME280;20471;49.680;20.074;2023-07-09T11:43:34;97600.50;;;33.29;25.11
34205;BME280;20471;49.680;20.074;2023-07-09T11:46:11;97593.20;;;33.05;24.80
34205;BME280;20471;49.680;20.074;2023-07-09T11:48:40;97593.88;;;32.71;25.71
34205;BME280;20471;49.680;20.074;2023-07-09T11:51:34;97592.90;;;32.61;25.99
34205;BME280;20471;49.680;20.074;2023-07-09T11:54:04;97592.63;;;32.71;25.80
34205;BME280;20471;49.680;20.074;2023-07-09T11:56:33;97588.46;;;32.81;25.54
34205;BME280;20471;49.680;20.074;2023-07-09T11:58:59;97592.59;;;32.85;25.52
34205;BME280;20471;49.680;20.074;2023-07-09T12:01:34;97597.00;;;32.74;25.79
34205;BME280;20471;49.680;20.074;2023-07-09T12:04:03;97596.34;;;32.46;26.37
34205;BME280;20471;49.680;20.074;2023-07-09T12:06:32;97590.52;;;32.27;26.77
34205;BME280;20471;49.680;20.074;2023-07-09T12:09:02;97591.45;;;32.29;26.87
34205;BME280;20471;49.680;20.074;2023-07-09T12:11:33;97590.38;;;32.34;26.79
34205;BME280;20471;49.680;20.074;2023-07-09T12:14:14;97584.64;;;32.32;26.58
34205;BME280;20471;49.680;20.074;2023-07-09T12:16:46;97577.27;;;32.31;26.84
34205;BME280;20471;49.680;20.074;2023-07-09T12:19:15;97570.92;;;32.40;26.61
34205;BME280;20471;49.680;20.074;2023-07-09T12:21:43;97574.77;;;32.50;26.80
34205;BME280;20471;49.680;20.074;2023-07-09T12:24:35;97578.27;;;32.45;26.04
34205;BME280;20471;49.680;20.074;2023-07-09T12:27:16;97575.08;;;32.48;25.79
34205;BME280;20471;49.680;20.074;2023-07-09T12:29:43;97571.58;;;32.45;26.18
34205;BME280;20471;49.680;20.074;2023-07-09T12:32:13;97574.21;;;32.61;26.18
34205;BME280;20471;49.680;20.074;2023-07-09T12:34:40;97571.93;;;32.67;26.02
34205;BME280;20471;49.680;20.074;2023-07-09T12:37:14;97572.55;;;32.56;26.05
34205;BME280;20471;49.680;20.074;2023-07-09T12:39:41;97570.14;;;32.35;26.09
34205;BME280;20471;49.680;20.074;2023-07-09T12:42:17;97569.15;;;32.40;25.38
34205;BME280;20471;49.680;20.074;2023-07-09T12:44:45;97565.20;;;32.39;25.03
34205;BME280;20471;49.680;20.074;2023-07-09T12:47:18;97560.67;;;32.42;25.45
34205;BME280;20471;49.680;20.074;2023-07-09T12:50:00;97560.83;;;32.41;25.25
34205;BME280;20471;49.680;20.074;2023-07-09T12:52:30;97558.27;;;32.29;25.20
34205;BME280;20471;49.680;20.074;2023-07-09T12:54:57;97564.92;;;32.32;25.31
34205;BME280;20471;49.680;20.074;2023-07-09T12:57:25;97560.92;;;32.44;24.81
34205;BME280;20471;49.680;20.074;2023-07-09T12:59:54;97555.35;;;32.54;24.67
34205;BME280;20471;49.680;20.074;2023-07-09T13:02:26;97553.70;;;32.63;24.76
34205;BME280;20471;49.680;20.074;2023-07-09T13:05:02;97555.42;;;32.62;25.35
34205;BME280;20471;49.680;20.074;2023-07-09T13:07:33;97555.83;;;32.42;25.63
34205;BME280;20471;49.680;20.074;2023-07-09T13:10:23;97556.94;;;32.16;26.08
34205;BME280;20471;49.680;20.074;2023-07-09T13:12:54;97548.29;;;32.13;25.89
34205;BME280;20471;49.680;20.074;2023-07-09T13:15:44;97547.23;;;32.15;26.07
34205;BME280;20471;49.680;20.074;2023-07-09T13:18:14;97548.41;;;32.23;25.40
34205;BME280;20471;49.680;20.074;2023-07-09T13:20:54;97546.64;;;32.27;26.25
34205;BME280;20471;49.680;20.074;2023-07-09T13:23:28;97546.45;;;32.33;26.88
34205;BME280;20471;49.680;20.074;2023-07-09T13:25:55;97547.44;;;32.39;25.70
34205;BME280;20471;49.680;20.074;2023-07-09T13:28:29;97547.34;;;32.46;25.26
34205;BME280;20471;49.680;20.074;2023-07-09T13:33:34;97540.41;;;32.60;24.42
34205;BME280;20471;49.680;20.074;2023-07-09T13:36:07;97540.71;;;32.69;24.38
34205;BME280;20471;49.680;20.074;2023-07-09T13:38:36;97536.49;;;32.85;23.87
34205;BME280;20471;49.680;20.074;2023-07-09T13:41:17;97536.41;;;33.00;24.04
34205;BME280;20471;49.680;20.074;2023-07-09T13:43:47;97532.74;;;33.08;23.90
34205;BME280;20471;49.680;20.074;2023-07-09T13:46:16;97535.09;;;33.06;24.12
34205;BME280;20471;49.680;20.074;2023-07-09T13:48:44;97538.07;;;33.05;24.70
34205;BME280;20471;49.680;20.074;2023-07-09T13:51:15;97537.85;;;32.92;25.17
34205;BME280;20471;49.680;20.074;2023-07-09T13:53:45;97534.06;;;32.71;25.32
34205;BME280;20471;49.680;20.074;2023-07-09T13:56:11;97532.45;;;32.66;25.64
34205;BME280;20471;49.680;20.074;2023-07-09T13:58:43;97534.33;;;32.71;25.36
34205;BME280;20471;49.680;20.074;2023-07-09T14:01:15;97535.70;;;32.85;24.92
34205;BME280;20471;49.680;20.074;2023-07-09T14:03:43;97533.21;;;32.98;24.58
34205;BME280;20471;49.680;20.074;2023-07-09T14:06:14;97534.37;;;33.04;24.83
34205;BME280;20471;49.680;20.074;2023-07-09T14:08:47;97539.20;;;33.05;24.39
34205;BME280;20471;49.680;20.074;2023-07-09T14:11:13;97532.69;;;33.09;23.96
34205;BME280;20471;49.680;20.074;2023-07-09T14:13:41;97533.61;;;33.08;23.90
34205;BME280;20471;49.680;20.074;2023-07-09T14:16:12;97532.91;;;32.82;24.80
34205;BME280;20471;49.680;20.074;2023-07-09T14:18:38;97536.75;;;32.42;25.40
34205;BME280;20471;49.680;20.074;2023-07-09T14:21:16;97534.44;;;32.32;25.23